Time;durP1;ratioP1;P1;durP2;ratioP2;P2;SDS_P1;SDS_P2;PMS_P1;PMS_P2;Temp;Humidity;BMP_temperature;BMP_pressure;BME280_temperature;BME280_humidity;BME280_pressure;Samples;Min_cycle;Max_cycle;Signal;HPM_P1;HPM_P2
2022/03/19 00:01:33;;;;;;;;;;;19.00;50.90;;;;;;5021437;28;19921;-53
2022/03/19 00:03:58;;;;;;;;;;;19.00;50.90;;;;;;5020472;28;20382;-56
2022/03/19 00:06:24;;;;;;;;;;;18.90;51.70;;;;;;5020612;28;19921;-56
2022/03/19 00:08:49;;;;;;;;;;;18.90;50.90;;;;;;5000046;28;19921;-56
2022/03/19 00:11:15;;;;;;;;;;;18.90;51.00;;;;;;5010549;28;20345;-58
2022/03/19 00:13:40;;;;;;;;;;;19.00;50.90;;;;;;5020836;28;19917;-56
2022/03/19 00:16:06;;;;;;;;;;;18.90;50.80;;;;;;5020896;28;19917;-54
2022/03/19 00:18:31;;;;;;;;;;;18.90;50.70;;;;;;5015980;28;19921;-55
2022/03/19 00:20:57;;;;;;;;;;;18.90;50.60;;;;;;5020951;28;19914;-57
2022/03/19 00:23:22;;;;;;;;;;;18.90;50.70;;;;;;5021184;28;19914;-56
2022/03/19 00:25:48;;;;;;;;;;;18.90;50.80;;;;;;5020884;28;19914;-56
2022/03/19 00:28:18;;;;;;;;;;;18.90;50.80;;;;;;5020796;28;19913;-55
2022/03/19 00:30:44;;;;;;;;;;;18.90;50.80;;;;;;5020625;28;19921;-56
2022/03/19 00:33:10;;;;;;;;;;;18.90;50.70;;;;;;5020288;28;19940;-56
2022/03/19 00:35:35;;;;;;;;;;;18.90;50.70;;;;;;5022404;28;19952;-53
2022/03/19 00:38:01;;;;;;;;;;;18.90;50.90;;;;;;5012896;28;19980;-57
2022/03/19 00:40:27;;;;;;;;;;;18.80;50.70;;;;;;5035475;22;19929;-63
2022/03/19 00:42:52;;;;;;;;;;;18.80;50.80;;;;;;5026864;28;19913;-64
2022/03/19 00:45:18;;;;;;;;;;;18.90;50.80;;;;;;5029620;28;19915;-64
2022/03/19 00:47:43;;;;;;;;;;;18.80;50.60;;;;;;5029883;28;19979;-63
2022/03/19 00:50:09;;;;;;;;;;;18.80;50.80;;;;;;5029972;28;19959;-63
2022/03/19 00:52:34;;;;;;;;;;;18.80;50.90;;;;;;5031457;28;19920;-64
2022/03/19 00:55:00;;;;;;;;;;;18.80;50.90;;;;;;5030954;28;19913;-59
2022/03/19 00:57:25;;;;;;;;;;;18.80;50.70;;;;;;5018059;28;19922;-63
2022/03/19 00:59:51;;;;;;;;;;;18.80;50.80;;;;;;5029439;28;19908;-63
2022/03/19 01:02:16;;;;;;;;;;;18.80;51.40;;;;;;5029547;28;19999;-62
2022/03/19 01:04:41;;;;;;;;;;;18.80;50.70;;;;;;5030232;28;20537;-63
2022/03/19 01:07:07;;;;;;;;;;;18.70;50.70;;;;;;5029692;28;19920;-63
2022/03/19 01:09:32;;;;;;;;;;;18.80;50.70;;;;;;5029506;28;19913;-63
2022/03/19 01:11:58;;;;;;;;;;;18.80;50.70;;;;;;5029948;28;19914;-62
2022/03/19 01:14:23;;;;;;;;;;;18.80;50.80;;;;;;5030168;28;20451;-62
2022/03/19 01:16:49;;;;;;;;;;;18.70;50.70;;;;;;5029440;28;19928;-63
2022/03/19 01:19:14;;;;;;;;;;;18.70;50.60;;;;;;5028938;28;19944;-63
2022/03/19 01:21:40;;;;;;;;;;;18.70;50.70;;;;;;5029732;28;19913;-63
2022/03/19 01:24:05;;;;;;;;;;;18.70;50.60;;;;;;5030050;28;20380;-63
2022/03/19 01:26:31;;;;;;;;;;;18.70;50.70;;;;;;5029989;28;20003;-62
2022/03/19 01:28:57;;;;;;;;;;;18.70;50.70;;;;;;5028919;28;19984;-63
2022/03/19 01:31:25;;;;;;;;;;;18.70;50.60;;;;;;5029206;28;19924;-63
2022/03/19 01:33:54;;;;;;;;;;;18.70;50.80;;;;;;5029207;28;20014;-53
2022/03/19 01:36:19;;;;;;;;;;;18.70;50.60;;;;;;5029967;28;20395;-64
2022/03/19 01:38:45;;;;;;;;;;;18.70;50.50;;;;;;5029045;28;19909;-63
2022/03/19 01:41:10;;;;;;;;;;;18.70;50.70;;;;;;5029999;28;19916;-63
2022/03/19 01:43:36;;;;;;;;;;;18.60;50.60;;;;;;5029989;28;19917;-60
2022/03/19 01:46:02;;;;;;;;;;;18.60;50.70;;;;;;5008831;28;19920;-63
2022/03/19 01:48:27;;;;;;;;;;;18.60;50.60;;;;;;5024357;28;19936;-63
2022/03/19 01:50:53;;;;;;;;;;;18.60;50.70;;;;;;5023988;28;20474;-64
2022/03/19 01:53:18;;;;;;;;;;;18.60;50.70;;;;;;5024252;28;20096;-63
2022/03/19 01:55:44;;;;;;;;;;;18.60;50.70;;;;;;5024065;28;19921;-53
2022/03/19 01:58:09;;;;;;;;;;;18.60;50.60;;;;;;5024044;28;19917;-64
2022/03/19 02:00:35;;;;;;;;;;;18.60;50.70;;;;;;5018482;28;19921;-64
2022/03/19 02:03:00;;;;;;;;;;;18.60;51.20;;;;;;5024383;28;19960;-64
2022/03/19 02:05:26;;;;;;;;;;;18.60;50.60;;;;;;5006163;28;19921;-63
2022/03/19 02:07:51;;;;;;;;;;;18.50;50.70;;;;;;5023737;28;20257;-63
2022/03/19 02:10:17;;;;;;;;;;;18.50;50.80;;;;;;5023424;28;19996;-64
2022/03/19 02:12:44;;;;;;;;;;;18.50;50.70;;;;;;5024127;28;19914;-60
2022/03/19 02:15:10;;;;;;;;;;;18.50;50.70;;;;;;5023384;28;19919;-64
2022/03/19 02:17:36;;;;;;;;;;;18.50;50.70;;;;;;5023691;28;19917;-64
2022/03/19 02:20:01;;;;;;;;;;;18.50;50.80;;;;;;5023358;28;20000;-58
2022/03/19 02:22:27;;;;;;;;;;;18.50;50.80;;;;;;5023651;28;19939;-65
2022/03/19 02:27:37;;;;;;;;;;;18.50;50.60;;;;;;5023623;28;20455;-65
2022/03/19 02:30:03;;;;;;;;;;;18.50;50.60;;;;;;5023309;28;20023;-64
2022/03/19 02:32:28;;;;;;;;;;;18.50;50.70;;;;;;5022987;28;19963;-65
2022/03/19 02:34:54;;;;;;;;;;;18.50;50.60;;;;;;5023740;28;21496;-64
2022/03/19 02:37:19;;;;;;;;;;;18.50;50.60;;;;;;5023408;28;19963;-65
2022/03/19 02:39:45;;;;;;;;;;;18.50;50.60;;;;;;5022580;28;19921;-64
2022/03/19 02:42:10;;;;;;;;;;;18.50;50.70;;;;;;5024055;28;19917;-65
2022/03/19 02:44:36;;;;;;;;;;;18.50;50.60;;;;;;5023350;28;19921;-65
2022/03/19 02:47:05;;;;;;;;;;;18.50;50.60;;;;;;5024890;28;20552;-61
2022/03/19 02:49:30;;;;;;;;;;;18.50;50.70;;;;;;5023323;28;21758;-64
2022/03/19 02:51:55;;;;;;;;;;;18.40;50.60;;;;;;5024801;28;19917;-65
2022/03/19 02:54:21;;;;;;;;;;;18.40;50.70;;;;;;5024931;28;20519;-62
2022/03/19 02:56:47;;;;;;;;;;;18.40;50.60;;;;;;5022703;28;19953;-65
2022/03/19 02:59:13;;;;;;;;;;;18.40;50.70;;;;;;5022628;28;19967;-61
2022/03/19 03:01:39;;;;;;;;;;;18.40;50.70;;;;;;5004991;28;19967;-64
2022/03/19 03:04:04;;;;;;;;;;;18.30;50.60;;;;;;5022726;28;19913;-62
2022/03/19 03:06:33;;;;;;;;;;;18.40;50.80;;;;;;5022769;28;20774;-64
2022/03/19 03:08:59;;;;;;;;;;;18.30;50.70;;;;;;5021179;28;19971;-66
2022/03/19 03:11:24;;;;;;;;;;;18.30;50.80;;;;;;5022549;28;20085;-61
2022/03/19 03:13:49;;;;;;;;;;;18.40;50.70;;;;;;5024508;28;19920;-64
2022/03/19 03:16:15;;;;;;;;;;;18.40;50.60;;;;;;5023201;28;20591;-64
2022/03/19 03:18:40;;;;;;;;;;;18.40;50.60;;;;;;5022588;28;19949;-64
2022/03/19 03:21:06;;;;;;;;;;;18.40;50.60;;;;;;5022523;28;19924;-65
2022/03/19 03:23:31;;;;;;;;;;;18.30;50.50;;;;;;5023015;28;19924;-65
2022/03/19 03:25:57;;;;;;;;;;;18.30;50.50;;;;;;5022030;28;20372;-65
2022/03/19 03:28:22;;;;;;;;;;;18.40;50.60;;;;;;5021955;28;19913;-61
2022/03/19 03:30:48;;;;;;;;;;;18.40;50.60;;;;;;5022320;28;19921;-64
2022/03/19 03:33:13;;;;;;;;;;;18.30;50.40;;;;;;5019944;28;19948;-65
2022/03/19 03:35:39;;;;;;;;;;;18.30;50.50;;;;;;5022293;28;19914;-65
2022/03/19 03:38:04;;;;;;;;;;;18.30;50.60;;;;;;5023157;28;19921;-65
2022/03/19 03:40:30;;;;;;;;;;;18.30;50.60;;;;;;5020703;28;19921;-65
2022/03/19 03:42:56;;;;;;;;;;;18.20;50.80;;;;;;5022626;28;20300;-65
2022/03/19 03:45:21;;;;;;;;;;;18.10;50.60;;;;;;5022544;28;19921;-64
2022/03/19 03:47:47;;;;;;;;;;;18.00;50.80;;;;;;5022071;28;19951;-65
2022/03/19 03:50:13;;;;;;;;;;;18.00;51.00;;;;;;5021547;28;19975;-62
2022/03/19 03:52:38;;;;;;;;;;;17.90;51.10;;;;;;5021819;28;19921;-59
2022/03/19 03:55:06;;;;;;;;;;;17.90;51.20;;;;;;5022199;28;20323;-63
2022/03/19 03:57:35;;;;;;;;;;;17.90;51.30;;;;;;5021387;28;19917;-64
2022/03/19 04:00:00;;;;;;;;;;;17.90;51.30;;;;;;5020615;28;21733;-64
2022/03/19 04:02:26;;;;;;;;;;;17.90;51.20;;;;;;5021578;28;19961;-62
2022/03/19 04:04:51;;;;;;;;;;;17.90;51.30;;;;;;5019380;28;19917;-64
2022/03/19 04:07:17;;;;;;;;;;;17.90;51.40;;;;;;5021054;28;19920;-64
2022/03/19 04:09:42;;;;;;;;;;;17.90;51.30;;;;;;5019686;28;19952;-64
2022/03/19 04:12:09;;;;;;;;;;;17.90;51.30;;;;;;5020536;28;19917;-64
2022/03/19 04:14:34;;;;;;;;;;;17.90;51.50;;;;;;5021770;28;20014;-64
2022/03/19 04:17:00;;;;;;;;;;;18.00;51.30;;;;;;5022027;28;19921;-64
2022/03/19 04:19:26;;;;;;;;;;;18.00;51.20;;;;;;5020469;28;20617;-65
2022/03/19 04:21:51;;;;;;;;;;;18.10;50.90;;;;;;5021524;28;19920;-63
2022/03/19 04:24:17;;;;;;;;;;;18.10;51.00;;;;;;5020694;28;19913;-64
2022/03/19 04:26:42;;;;;;;;;;;18.20;51.10;;;;;;5021590;28;20590;-63
2022/03/19 04:29:08;;;;;;;;;;;18.20;50.90;;;;;;5020329;28;19913;-64
2022/03/19 04:31:33;;;;;;;;;;;18.20;50.90;;;;;;5021791;28;19921;-54
2022/03/19 04:33:59;;;;;;;;;;;18.10;50.90;;;;;;5021307;28;19921;-56
2022/03/19 04:36:30;;;;;;;;;;;18.20;50.70;;;;;;5021500;28;19945;-64
2022/03/19 04:38:59;;;;;;;;;;;18.20;50.60;;;;;;5020135;28;19933;-60
2022/03/19 04:41:25;;;;;;;;;;;18.20;50.50;;;;;;5021743;28;19917;-64
2022/03/19 04:43:50;;;;;;;;;;;18.30;50.60;;;;;;5021801;28;19979;-65
2022/03/19 04:46:15;;;;;;;;;;;18.20;50.50;;;;;;5021705;28;19960;-63
2022/03/19 04:48:44;;;;;;;;;;;18.30;50.50;;;;;;5018841;28;19960;-64
2022/03/19 04:51:11;;;;;;;;;;;18.30;50.40;;;;;;5021234;28;19913;-64
2022/03/19 04:53:36;;;;;;;;;;;18.40;50.40;;;;;;5021217;28;19917;-62
2022/03/19 04:56:02;;;;;;;;;;;18.40;50.30;;;;;;5021263;28;19919;-64
2022/03/19 04:58:27;;;;;;;;;;;18.40;50.90;;;;;;5020372;28;19909;-61
2022/03/19 05:00:53;;;;;;;;;;;18.40;50.20;;;;;;5020873;28;20750;-65
2022/03/19 05:03:18;;;;;;;;;;;18.40;50.20;;;;;;5020219;28;19920;-64
2022/03/19 05:05:44;;;;;;;;;;;18.50;50.10;;;;;;5020833;28;19913;-65
2022/03/19 05:08:09;;;;;;;;;;;18.50;50.00;;;;;;5020405;28;20031;-65
2022/03/19 05:13:20;;;;;;;;;;;18.50;50.00;;;;;;5018425;28;19963;-65
2022/03/19 05:15:45;;;;;;;;;;;18.50;50.00;;;;;;5021211;28;19929;-64
2022/03/19 05:18:11;;;;;;;;;;;18.50;49.90;;;;;;5020276;28;19909;-64
2022/03/19 05:20:36;;;;;;;;;;;18.60;49.80;;;;;;5020405;28;20540;-64
2022/03/19 05:23:03;;;;;;;;;;;18.60;49.70;;;;;;5024205;28;19917;-65
2022/03/19 05:25:29;;;;;;;;;;;18.60;49.70;;;;;;5023553;28;19909;-65
2022/03/19 05:27:55;;;;;;;;;;;18.60;49.60;;;;;;5023308;28;20726;-66
2022/03/19 05:30:20;;;;;;;;;;;18.70;49.50;;;;;;5024236;28;19913;-65
2022/03/19 05:32:45;;;;;;;;;;;18.70;49.50;;;;;;5024787;28;19917;-65
2022/03/19 05:35:11;;;;;;;;;;;18.60;49.50;;;;;;5024339;28;20404;-65
2022/03/19 05:37:36;;;;;;;;;;;18.70;49.50;;;;;;5006665;28;19917;-65
2022/03/19 05:40:05;;;;;;;;;;;18.60;49.50;;;;;;5023825;28;20420;-65
2022/03/19 05:42:31;;;;;;;;;;;18.60;49.50;;;;;;5024036;28;19917;-65
2022/03/19 05:44:56;;;;;;;;;;;18.70;49.50;;;;;;5024604;28;19944;-65
2022/03/19 05:47:22;;;;;;;;;;;18.70;49.40;;;;;;5024111;28;19963;-62
2022/03/19 05:49:47;;;;;;;;;;;18.70;49.40;;;;;;5023593;28;20127;-65
2022/03/19 05:52:13;;;;;;;;;;;18.80;49.40;;;;;;5023931;28;19952;-65
2022/03/19 05:54:38;;;;;;;;;;;18.70;49.30;;;;;;5023749;28;19909;-65
2022/03/19 05:57:03;;;;;;;;;;;18.70;49.30;;;;;;5024810;28;19921;-65
2022/03/19 05:59:29;;;;;;;;;;;18.80;49.40;;;;;;5023120;28;19913;-65
2022/03/19 06:01:54;;;;;;;;;;;18.70;49.40;;;;;;5023208;28;19932;-65
2022/03/19 06:04:20;;;;;;;;;;;18.70;49.40;;;;;;5023714;28;20237;-66
2022/03/19 06:06:47;;;;;;;;;;;18.70;49.50;;;;;;5022906;28;19963;-65
2022/03/19 06:09:12;;;;;;;;;;;18.80;49.40;;;;;;5023089;28;19922;-65
2022/03/19 06:11:38;;;;;;;;;;;18.80;49.40;;;;;;5023548;28;19983;-65
2022/03/19 06:14:04;;;;;;;;;;;18.80;49.30;;;;;;5024118;28;19924;-65
2022/03/19 06:16:29;;;;;;;;;;;18.80;49.40;;;;;;5023881;28;19917;-65
2022/03/19 06:18:55;;;;;;;;;;;18.80;49.50;;;;;;5022819;28;19909;-66
2022/03/19 06:21:22;;;;;;;;;;;18.80;49.50;;;;;;5023563;28;19913;-65
2022/03/19 06:23:49;;;;;;;;;;;18.70;49.40;;;;;;5005975;28;20295;-65
2022/03/19 06:26:15;;;;;;;;;;;18.80;49.50;;;;;;5022828;28;19948;-65
2022/03/19 06:28:40;;;;;;;;;;;18.80;49.50;;;;;;5023219;28;20459;-63
2022/03/19 06:31:06;;;;;;;;;;;18.70;49.40;;;;;;5025321;28;19971;-65
2022/03/19 06:33:31;;;;;;;;;;;18.70;49.50;;;;;;5024178;28;20329;-65
2022/03/19 06:38:41;;;;;;;;;;;18.70;49.50;;;;;;5023151;28;19921;-63
2022/03/19 06:41:06;;;;;;;;;;;18.70;49.60;;;;;;5024152;28;20427;-66
2022/03/19 06:43:32;;;;;;;;;;;18.60;49.60;;;;;;5023791;28;19909;-65
2022/03/19 06:45:58;;;;;;;;;;;18.60;49.50;;;;;;5023471;28;19917;-65
2022/03/19 06:48:26;;;;;;;;;;;18.60;49.50;;;;;;5022652;28;19924;-64
2022/03/19 06:50:53;;;;;;;;;;;18.60;49.60;;;;;;5022206;28;20011;-66
2022/03/19 06:53:19;;;;;;;;;;;18.60;49.60;;;;;;5023018;28;19913;-65
2022/03/19 06:55:44;;;;;;;;;;;18.60;49.60;;;;;;5022740;28;19910;-65
2022/03/19 06:58:10;;;;;;;;;;;18.60;49.60;;;;;;5022854;28;20527;-65
2022/03/19 07:00:36;;;;;;;;;;;18.60;49.80;;;;;;5021960;28;19970;-63
2022/03/19 07:03:01;;;;;;;;;;;18.60;49.90;;;;;;5008725;28;19920;-59
2022/03/19 07:05:27;;;;;;;;;;;18.60;50.10;;;;;;5022134;28;19921;-64
2022/03/19 07:07:53;;;;;;;;;;;18.60;49.90;;;;;;5023253;28;19959;-65
2022/03/19 07:10:19;;;;;;;;;;;18.60;50.10;;;;;;5021950;28;19979;-63
2022/03/19 07:12:45;;;;;;;;;;;18.60;50.00;;;;;;5022898;28;19944;-65
2022/03/19 07:15:11;;;;;;;;;;;18.60;50.30;;;;;;5022586;28;19909;-65
2022/03/19 07:17:36;;;;;;;;;;;18.60;50.10;;;;;;5022737;28;20099;-64
2022/03/19 07:20:02;;;;;;;;;;;18.60;50.40;;;;;;5021536;28;20594;-65
2022/03/19 07:22:27;;;;;;;;;;;18.50;50.80;;;;;;5022310;28;19936;-65
2022/03/19 07:24:53;;;;;;;;;;;18.50;50.60;;;;;;5022950;28;19913;-64
2022/03/19 07:27:18;;;;;;;;;;;18.60;50.30;;;;;;5022216;28;20437;-65
2022/03/19 07:29:44;;;;;;;;;;;18.60;50.20;;;;;;5022357;28;19909;-65
2022/03/19 07:32:10;;;;;;;;;;;18.60;50.40;;;;;;5022367;28;19919;-60
2022/03/19 07:34:39;;;;;;;;;;;18.50;50.20;;;;;;5027590;28;19966;-65
2022/03/19 07:37:04;;;;;;;;;;;18.50;50.40;;;;;;5024220;28;19993;-64
2022/03/19 07:39:30;;;;;;;;;;;18.50;50.60;;;;;;5026859;28;19925;-65
2022/03/19 07:41:56;;;;;;;;;;;18.50;50.80;;;;;;5026145;28;19975;-66
2022/03/19 07:44:21;;;;;;;;;;;18.50;50.70;;;;;;5022426;28;20686;-66
2022/03/19 07:46:46;;;;;;;;;;;18.50;50.70;;;;;;5021190;28;19913;-65
2022/03/19 07:49:12;;;;;;;;;;;18.50;50.80;;;;;;5020730;28;19927;-65
2022/03/19 07:51:37;;;;;;;;;;;18.50;50.90;;;;;;5021119;28;20378;-65
2022/03/19 07:54:03;;;;;;;;;;;18.50;51.00;;;;;;5015965;28;19953;-66
2022/03/19 07:56:28;;;;;;;;;;;18.50;51.00;;;;;;5022129;28;19922;-65
2022/03/19 07:58:54;;;;;;;;;;;18.50;51.20;;;;;;5020641;28;19952;-63
2022/03/19 08:01:19;;;;;;;;;;;18.50;51.40;;;;;;5021941;28;19917;-66
2022/03/19 08:03:47;;;;;;;;;;;18.50;51.40;;;;;;5015146;28;20380;-65
2022/03/19 08:06:12;;;;;;;;;;;18.60;51.30;;;;;;5022168;28;19925;-64
2022/03/19 08:08:37;;;;;;;;;;;18.50;51.30;;;;;;5006994;28;19917;-64
2022/03/19 08:11:03;;;;;;;;;;;18.50;51.30;;;;;;5021424;28;20587;-63
2022/03/19 08:13:29;;;;;;;;;;;18.50;51.20;;;;;;5021585;28;19927;-64
2022/03/19 08:15:54;;;;;;;;;;;18.50;51.10;;;;;;5021817;28;19917;-65
2022/03/19 08:18:20;;;;;;;;;;;18.50;51.10;;;;;;5021824;28;20010;-64
2022/03/19 08:20:46;;;;;;;;;;;18.50;50.90;;;;;;5021009;28;19921;-65
2022/03/19 08:23:12;;;;;;;;;;;18.50;51.00;;;;;;5021442;28;19924;-64
2022/03/19 08:25:38;;;;;;;;;;;18.50;50.80;;;;;;5022179;28;19967;-66
2022/03/19 08:28:03;;;;;;;;;;;18.40;50.80;;;;;;5021941;28;20331;-65
2022/03/19 08:30:29;;;;;;;;;;;18.40;50.70;;;;;;5016382;28;19995;-65
2022/03/19 08:32:54;;;;;;;;;;;18.50;50.70;;;;;;5021520;28;19959;-64
2022/03/19 08:35:20;;;;;;;;;;;18.40;50.70;;;;;;5021299;28;20464;-64
2022/03/19 08:37:46;;;;;;;;;;;18.40;50.60;;;;;;5021347;28;19967;-66
2022/03/19 08:40:17;;;;;;;;;;;18.40;50.60;;;;;;5020733;28;19917;-65
2022/03/19 08:42:48;;;;;;;;;;;18.40;50.60;;;;;;5021559;28;19941;-65
2022/03/19 08:45:13;;;;;;;;;;;18.40;50.60;;;;;;5020976;28;19982;-65
2022/03/19 08:47:39;;;;;;;;;;;18.40;50.60;;;;;;5020734;28;19917;-65
2022/03/19 08:50:04;;;;;;;;;;;18.40;50.50;;;;;;5020608;28;19924;-66
2022/03/19 08:52:30;;;;;;;;;;;18.40;50.50;;;;;;5020331;28;20303;-64
2022/03/19 08:54:55;;;;;;;;;;;18.50;50.50;;;;;;5021958;28;20126;-65
2022/03/19 08:57:21;;;;;;;;;;;18.40;50.50;;;;;;5024147;28;20340;-66
2022/03/19 08:59:46;;;;;;;;;;;18.40;50.50;;;;;;5023978;28;19913;-66
2022/03/19 09:02:12;;;;;;;;;;;18.40;50.40;;;;;;5025375;28;19909;-63
2022/03/19 09:04:37;;;;;;;;;;;18.50;51.20;;;;;;5025119;28;20614;-64
2022/03/19 09:07:02;;;;;;;;;;;18.50;51.40;;;;;;5025212;28;19952;-65
2022/03/19 09:09:28;;;;;;;;;;;18.50;51.60;;;;;;5023711;28;20055;-64
2022/03/19 09:11:53;;;;;;;;;;;18.50;51.90;;;;;;5024649;28;19962;-64
2022/03/19 09:14:20;;;;;;;;;;;18.50;52.00;;;;;;5024342;28;20364;-64
2022/03/19 09:16:45;;;;;;;;;;;18.50;52.30;;;;;;5024650;28;19920;-65
2022/03/19 09:19:11;;;;;;;;;;;18.50;52.60;;;;;;5025203;28;19917;-66
2022/03/19 09:21:36;;;;;;;;;;;18.50;52.80;;;;;;5024826;28;19913;-65
2022/03/19 09:24:02;;;;;;;;;;;18.50;52.90;;;;;;5025591;28;20790;-65
2022/03/19 09:26:27;;;;;;;;;;;18.50;52.90;;;;;;5025277;28;19913;-65
2022/03/19 09:28:53;;;;;;;;;;;18.40;52.70;;;;;;5024869;28;20435;-66
2022/03/19 09:31:18;;;;;;;;;;;18.40;52.90;;;;;;5024435;28;19913;-65
2022/03/19 09:33:45;;;;;;;;;;;18.30;52.80;;;;;;5024120;28;19913;-66
2022/03/19 09:36:10;;;;;;;;;;;18.30;52.90;;;;;;5024997;28;19913;-66
2022/03/19 09:38:36;;;;;;;;;;;18.20;52.70;;;;;;5024075;28;20429;-63
2022/03/19 09:41:01;;;;;;;;;;;18.20;52.70;;;;;;5025097;28;20629;-65
2022/03/19 09:43:27;;;;;;;;;;;18.10;52.70;;;;;;5024085;28;19909;-65
2022/03/19 09:45:52;;;;;;;;;;;18.10;52.70;;;;;;5024466;28;19918;-65
2022/03/19 09:48:18;;;;;;;;;;;18.10;52.60;;;;;;5024231;28;20372;-66
2022/03/19 09:50:44;;;;;;;;;;;18.10;52.60;;;;;;5023743;28;19925;-65
2022/03/19 09:53:09;;;;;;;;;;;18.20;52.60;;;;;;5024813;28;19963;-66
2022/03/19 09:55:36;;;;;;;;;;;18.30;52.70;;;;;;5006611;28;21339;-66
2022/03/19 09:58:03;;;;;;;;;;;18.30;52.50;;;;;;5006260;28;20016;-65
2022/03/19 10:00:28;;;;;;;;;;;18.30;52.30;;;;;;5023264;28;19913;-72
2022/03/19 10:02:53;;;;;;;;;;;18.30;52.20;;;;;;5024291;28;19913;-65
2022/03/19 10:10:50;;;;;;;;;;;18.30;51.90;;;;;;5023342;28;19920;-65
2022/03/19 10:13:16;;;;;;;;;;;18.40;51.70;;;;;;5022878;28;20182;-66
2022/03/19 10:15:41;;;;;;;;;;;18.40;51.40;;;;;;5024007;28;19913;-65
2022/03/19 10:18:07;;;;;;;;;;;18.40;51.90;;;;;;5024510;28;20419;-65
2022/03/19 10:20:34;;;;;;;;;;;18.50;51.10;;;;;;5022947;28;19992;-65
2022/03/19 10:23:00;;;;;;;;;;;18.50;50.80;;;;;;5023148;28;19971;-65
2022/03/19 10:25:25;;;;;;;;;;;18.50;50.60;;;;;;5023769;28;19913;-65
2022/03/19 10:27:50;;;;;;;;;;;18.50;50.50;;;;;;5023164;28;19913;-65
2022/03/19 10:30:19;;;;;;;;;;;18.50;50.60;;;;;;5022845;28;20565;-65
2022/03/19 10:32:52;;;;;;;;;;;18.50;50.30;;;;;;5023611;28;20446;-65
2022/03/19 10:35:33;;;;;;;;;;;18.50;50.30;;;;;;5006173;28;19960;-67
2022/03/19 10:37:59;;;;;;;;;;;18.50;50.10;;;;;;5023977;28;19996;-63
2022/03/19 10:40:40;;;;;;;;;;;18.50;50.00;;;;;;5022612;28;19928;-64
2022/03/19 10:43:07;;;;;;;;;;;18.60;50.00;;;;;;5023460;28;19913;-64
2022/03/19 10:45:33;;;;;;;;;;;18.60;49.90;;;;;;5024118;28;19909;-64
2022/03/19 10:47:58;;;;;;;;;;;18.60;49.80;;;;;;5023488;28;19909;-65
2022/03/19 10:50:24;;;;;;;;;;;18.60;49.70;;;;;;5005095;28;19927;-64
2022/03/19 10:52:50;;;;;;;;;;;18.60;49.70;;;;;;5023529;28;19920;-65
2022/03/19 10:55:15;;;;;;;;;;;18.60;49.60;;;;;;5023385;28;19913;-67
2022/03/19 10:57:41;;;;;;;;;;;18.70;49.60;;;;;;5023390;28;20505;-64
2022/03/19 11:00:07;;;;;;;;;;;18.70;49.50;;;;;;5023393;28;20035;-66
2022/03/19 11:02:33;;;;;;;;;;;18.70;49.40;;;;;;5023080;28;20000;-64
2022/03/19 11:04:58;;;;;;;;;;;18.70;49.40;;;;;;5005435;28;20670;-66
2022/03/19 11:07:24;;;;;;;;;;;18.70;49.20;;;;;;5022988;28;19920;-65
2022/03/19 11:09:50;;;;;;;;;;;18.70;49.20;;;;;;5003406;28;19971;-64
2022/03/19 11:12:17;;;;;;;;;;;18.70;49.10;;;;;;5022653;28;19913;-67
2022/03/19 11:14:42;;;;;;;;;;;18.80;49.10;;;;;;5022622;28;19916;-64
2022/03/19 11:17:33;;;;;;;;;;;18.80;49.00;;;;;;5005497;28;20311;-58
2022/03/19 11:20:00;;;;;;;;;;;18.80;49.00;;;;;;5021689;28;19968;-63
2022/03/19 11:22:26;;;;;;;;;;;18.80;49.00;;;;;;5005650;28;19913;-66
2022/03/19 11:24:53;;;;;;;;;;;18.80;48.90;;;;;;5004974;28;19913;-65
2022/03/19 11:27:19;;;;;;;;;;;18.90;48.80;;;;;;5023122;28;19996;-65
2022/03/19 11:29:44;;;;;;;;;;;18.90;48.80;;;;;;5004467;28;19971;-64
2022/03/19 11:32:19;;;;;;;;;;;18.90;48.60;;;;;;5021488;28;19913;-65
2022/03/19 11:34:45;;;;;;;;;;;18.90;48.60;;;;;;5022718;28;19963;-65
2022/03/19 11:37:11;;;;;;;;;;;18.80;48.60;;;;;;5022877;28;19913;-62
2022/03/19 11:39:36;;;;;;;;;;;18.80;48.50;;;;;;5022127;28;19923;-64
2022/03/19 11:42:04;;;;;;;;;;;18.80;48.60;;;;;;5022663;28;19909;-65
2022/03/19 11:44:29;;;;;;;;;;;18.80;48.50;;;;;;5004533;28;19979;-65
2022/03/19 11:46:55;;;;;;;;;;;18.80;48.70;;;;;;5021973;28;19913;-64
2022/03/19 11:49:40;;;;;;;;;;;18.90;48.80;;;;;;5021425;28;19962;-63
2022/03/19 11:52:06;;;;;;;;;;;19.00;48.80;;;;;;5022034;28;20008;-64
2022/03/19 11:54:54;;;;;;;;;;;19.00;49.00;;;;;;5021730;28;19921;-66
2022/03/19 11:57:20;;;;;;;;;;;19.00;48.90;;;;;;5021225;28;20253;-65
2022/03/19 11:59:46;;;;;;;;;;;19.00;48.90;;;;;;5021068;28;19917;-65
2022/03/19 12:02:12;;;;;;;;;;;19.00;49.10;;;;;;5022265;28;19915;-64
2022/03/19 12:04:51;;;;;;;;;;;19.00;48.90;;;;;;5022483;28;19937;-64
2022/03/19 12:07:36;;;;;;;;;;;19.00;48.70;;;;;;5022331;28;20000;-64
2022/03/19 12:10:05;;;;;;;;;;;19.10;48.70;;;;;;5021259;28;19921;-63
2022/03/19 12:12:31;;;;;;;;;;;19.10;48.50;;;;;;4988364;28;19925;-64
2022/03/19 12:14:56;;;;;;;;;;;19.20;48.50;;;;;;5022708;28;20736;-64
2022/03/19 12:17:23;;;;;;;;;;;19.20;48.40;;;;;;5022120;28;19909;-65
2022/03/19 12:19:54;;;;;;;;;;;19.20;48.30;;;;;;5023699;28;20695;-63
2022/03/19 12:22:28;;;;;;;;;;;19.30;48.20;;;;;;5015298;28;19955;-64
2022/03/19 12:25:16;;;;;;;;;;;19.30;48.30;;;;;;5022784;28;19919;-65
2022/03/19 12:27:41;;;;;;;;;;;19.30;48.20;;;;;;5022156;28;20433;-64
2022/03/19 12:30:08;;;;;;;;;;;19.30;47.90;;;;;;5022323;28;19914;-65
2022/03/19 12:32:49;;;;;;;;;;;19.30;47.80;;;;;;4969880;28;19944;-64
2022/03/19 12:35:15;;;;;;;;;;;19.40;47.90;;;;;;5021688;28;19913;-63
2022/03/19 12:37:52;;;;;;;;;;;19.40;47.80;;;;;;5021199;28;20640;-60
2022/03/19 12:40:19;;;;;;;;;;;19.40;47.50;;;;;;5020126;28;19917;-65
2022/03/19 12:42:49;;;;;;;;;;;19.50;47.60;;;;;;5022689;28;19913;-64
2022/03/19 12:45:14;;;;;;;;;;;19.50;47.80;;;;;;5021161;28;20615;-65
2022/03/19 12:47:39;;;;;;;;;;;19.50;47.40;;;;;;5021882;28;19910;-64
2022/03/19 12:50:05;;;;;;;;;;;19.50;47.40;;;;;;5020999;28;19909;-64
2022/03/19 12:52:33;;;;;;;;;;;19.50;47.30;;;;;;5020887;28;20682;-65
2022/03/19 12:55:00;;;;;;;;;;;19.60;47.20;;;;;;5004341;28;19941;-66
2022/03/19 12:57:25;;;;;;;;;;;19.60;47.40;;;;;;5021682;28;19921;-65
2022/03/19 12:59:55;;;;;;;;;;;19.60;47.60;;;;;;4999162;28;19914;-64
2022/03/19 13:02:21;;;;;;;;;;;19.60;47.60;;;;;;5021261;28;20374;-64
2022/03/19 13:04:47;;;;;;;;;;;19.60;47.60;;;;;;5022186;28;19909;-65
2022/03/19 13:07:13;;;;;;;;;;;19.60;47.60;;;;;;5021178;28;20529;-64
2022/03/19 13:09:39;;;;;;;;;;;19.60;47.40;;;;;;5020755;28;19913;-59
2022/03/19 13:12:05;;;;;;;;;;;19.60;47.50;;;;;;5021368;28;20008;-65
2022/03/19 13:14:31;;;;;;;;;;;19.50;47.70;;;;;;5021535;28;20326;-64
2022/03/19 13:16:56;;;;;;;;;;;19.60;47.50;;;;;;5021350;28;19914;-64
2022/03/19 13:19:22;;;;;;;;;;;19.50;47.30;;;;;;5020779;28;19913;-65
2022/03/19 13:21:50;;;;;;;;;;;19.50;47.10;;;;;;5003093;28;19984;-65
2022/03/19 13:24:23;;;;;;;;;;;19.50;46.90;;;;;;5021673;28;19992;-63
2022/03/19 13:26:48;;;;;;;;;;;19.50;47.00;;;;;;5020534;28;20601;-65
2022/03/19 13:29:14;;;;;;;;;;;19.40;47.60;;;;;;5021099;28;20552;-64
2022/03/19 13:31:50;;;;;;;;;;;19.40;48.50;;;;;;5021284;28;19913;-64
2022/03/19 13:34:23;;;;;;;;;;;19.40;48.50;;;;;;5021484;28;20362;-64
2022/03/19 13:36:51;;;;;;;;;;;19.40;48.30;;;;;;5020513;28;19913;-65
2022/03/19 13:39:17;;;;;;;;;;;19.40;47.90;;;;;;5020356;28;19917;-64
2022/03/19 13:41:43;;;;;;;;;;;19.30;47.60;;;;;;5021149;28;22045;-63
2022/03/19 13:44:08;;;;;;;;;;;19.30;47.80;;;;;;5024989;28;19922;-64
2022/03/19 13:46:34;;;;;;;;;;;19.30;47.80;;;;;;5006826;28;20383;-63
2022/03/19 13:49:10;;;;;;;;;;;19.30;47.60;;;;;;5023267;28;19988;-64
2022/03/19 13:51:43;;;;;;;;;;;19.30;47.70;;;;;;5024340;28;19920;-60
2022/03/19 13:54:08;;;;;;;;;;;19.30;47.70;;;;;;5024516;28;19928;-63
2022/03/19 13:56:47;;;;;;;;;;;19.30;47.60;;;;;;5024340;28;19913;-64
2022/03/19 13:59:12;;;;;;;;;;;19.30;47.80;;;;;;5023377;28;19920;-64
2022/03/19 14:01:38;;;;;;;;;;;19.30;48.10;;;;;;5005805;28;19921;-64
2022/03/19 14:04:03;;;;;;;;;;;19.20;47.90;;;;;;5024171;28;19966;-64
2022/03/19 14:06:35;;;;;;;;;;;19.30;47.80;;;;;;5024291;28;19920;-64
2022/03/19 14:09:00;;;;;;;;;;;19.30;47.80;;;;;;5023687;28;19909;-64
2022/03/19 14:11:35;;;;;;;;;;;19.20;47.70;;;;;;5024681;28;19947;-64
2022/03/19 14:14:01;;;;;;;;;;;19.20;47.70;;;;;;5024721;28;19913;-65
2022/03/19 14:16:26;;;;;;;;;;;19.20;47.50;;;;;;5024976;28;19917;-64
2022/03/19 14:18:54;;;;;;;;;;;19.20;47.40;;;;;;5022662;28;19952;-62
2022/03/19 14:21:19;;;;;;;;;;;19.10;47.30;;;;;;5006719;28;20467;-64
2022/03/19 14:23:45;;;;;;;;;;;19.10;47.20;;;;;;5024483;28;19913;-64
2022/03/19 14:26:12;;;;;;;;;;;19.10;47.20;;;;;;5023818;28;20453;-62